Time;durP1;ratioP1;P1;durP2;ratioP2;P2;SDS_P1;SDS_P2;PMS_P1;PMS_P2;Temp;Humidity;BMP_temperature;BMP_pressure;BME280_temperature;BME280_humidity;BME280_pressure;Samples;Min_cycle;Max_cycle;Signal;HPM_P1;HPM_P2
2022/03/21 06:11:42;;;;;;;28.87;15.95;;;;;;;-0.31;71.14;102048.47;1779744;77;21645;-45
2022/03/21 06:14:22;;;;;;;27.93;16.42;;;;;;;-0.05;70.70;102052.02;1761253;77;20982;-45
2022/03/21 06:16:51;;;;;;;32.48;15.95;;;;;;;0.19;70.44;102060.16;1780822;77;21052;-39
2022/03/21 06:19:24;;;;;;;33.42;17.20;;;;;;;0.44;69.64;102064.42;1793102;78;21039;-46
2022/03/21 06:22:01;;;;;;;27.15;16.00;;;;;;;0.67;68.77;102058.27;1753450;78;21062;-44
2022/03/21 06:24:31;;;;;;;28.57;17.25;;;;;;;0.90;68.24;102058.53;1760712;80;21444;-45
2022/03/21 06:33:26;;;;;;;28.12;14.75;;;;;;;1.71;65.47;102066.00;1788520;78;20977;-38
2022/03/21 06:36:08;;;;;;;29.60;15.18;;;;;;;1.97;65.21;102062.87;1774522;79;21009;-45
2022/03/21 06:38:39;;;;;;;26.73;16.50;;;;;;;2.18;64.53;102061.63;1755201;80;21069;-46
2022/03/21 06:41:14;;;;;;;24.23;15.63;;;;;;;2.38;63.19;102056.02;1732543;79;21063;-41
2022/03/21 06:43:43;;;;;;;26.10;15.55;;;;;;;2.55;62.53;102057.41;1747439;80;21497;-45
2022/03/21 06:46:12;;;;;;;25.12;14.47;;;;;;;2.71;61.68;102051.47;1742486;81;21142;-39
2022/03/21 06:48:42;;;;;;;21.48;14.23;;;;;;;2.88;61.34;102054.25;1675324;80;21068;-38
2022/03/21 06:51:23;;;;;;;23.85;13.90;;;;;;;3.04;60.33;102052.17;1723219;80;21488;-38
2022/03/21 06:53:54;;;;;;;21.12;13.13;;;;;;;3.20;58.92;102049.67;1756117;80;20999;-46
2022/03/21 06:56:40;;;;;;;28.60;14.15;;;;;;;3.36;58.76;102058.28;1710710;81;21481;-45
2022/03/21 06:59:12;;;;;;;22.22;13.43;;;;;;;3.50;58.21;102056.50;1769280;78;21017;-47
2022/03/21 07:02:36;;;;;;;20.02;11.93;;;;;;;3.65;57.58;102053.08;1759857;81;21083;-39
2022/03/21 07:05:16;;;;;;;23.12;12.78;;;;;;;3.79;57.20;102059.02;1777542;79;21133;-45
2022/03/21 07:07:47;;;;;;;20.80;12.10;;;;;;;3.97;56.39;102056.14;1779436;80;21561;-39
2022/03/21 07:10:22;;;;;;;20.55;12.47;;;;;;;4.12;56.17;102061.68;1712260;80;21203;-46
2022/03/21 07:12:58;;;;;;;25.72;12.82;;;;;;;4.26;55.16;102061.59;1717663;80;21066;-39
2022/03/21 07:15:28;;;;;;;22.20;12.18;;;;;;;4.40;55.15;102064.91;1742373;80;21176;-39
2022/03/21 07:17:58;;;;;;;20.88;12.15;;;;;;;4.53;54.41;102059.98;1733348;80;21065;-38
2022/03/21 07:20:34;;;;;;;20.02;12.85;;;;;;;4.65;54.14;102059.73;1750103;80;21111;-38
2022/03/21 07:23:08;;;;;;;20.82;12.43;;;;;;;4.76;53.49;102065.07;1692377;83;21042;-39
2022/03/21 07:25:37;;;;;;;20.70;12.47;;;;;;;4.84;52.72;102057.67;1743488;79;21096;-39
2022/03/21 07:28:11;;;;;;;20.75;11.75;;;;;;;4.94;53.46;102052.15;1745658;80;21076;-38
2022/03/21 07:31:03;;;;;;;23.98;12.93;;;;;;;5.09;52.91;102049.00;1718008;80;21253;-47
2022/03/21 07:33:45;;;;;;;19.07;11.95;;;;;;;5.23;52.51;102053.19;1748511;80;21017;-46
2022/03/21 07:36:15;;;;;;;19.52;11.73;;;;;;;5.39;52.09;102057.41;1761697;80;21052;-38
2022/03/21 07:38:46;;;;;;;20.15;11.80;;;;;;;5.50;50.86;102061.83;1718020;81;21755;-37
2022/03/21 07:41:20;;;;;;;17.27;11.28;;;;;;;5.55;50.63;102061.64;1729050;82;21071;-38
2022/03/21 07:43:51;;;;;;;21.00;11.00;;;;;;;5.62;50.32;102063.72;1688149;82;21037;-38
2022/03/21 07:49:09;;;;;;;17.73;11.25;;;;;;;5.73;50.00;102062.94;1742036;80;21161;-46
2022/03/21 07:51:37;;;;;;;15.55;10.20;;;;;;;5.79;50.29;102063.22;1744349;80;21077;-47
2022/03/21 07:54:06;;;;;;;16.55;9.30;;;;;;;5.87;50.43;102058.00;1718566;80;21329;-45
2022/03/21 07:57:09;;;;;;;13.75;9.90;;;;;;;5.95;49.68;102059.68;1721449;82;21143;-36
2022/03/21 08:04:12;;;;;;;16.62;9.60;;;;;;;6.14;49.34;102061.00;1741041;79;21069;-37
2022/03/21 08:07:37;;;;;;;19.37;9.93;;;;;;;6.21;49.17;102053.98;1771672;79;21128;-37
2022/03/21 08:10:34;;;;;;;15.18;9.70;;;;;;;6.27;49.39;102048.17;1706496;82;21657;-45
2022/03/21 08:13:28;;;;;;;14.20;9.33;;;;;;;6.40;49.14;102044.88;1683607;83;21053;-46
2022/03/21 08:16:04;;;;;;;16.32;9.35;;;;;;;6.54;48.92;102038.98;1682761;83;21147;-46
2022/03/21 08:18:42;;;;;;;15.03;9.55;;;;;;;6.73;48.64;102036.80;1659236;82;21044;-45
2022/03/21 08:21:18;;;;;;;16.82;9.95;;;;;;;6.87;47.92;102023.95;1711496;81;21167;-37
2022/03/21 08:23:50;;;;;;;19.30;10.93;;;;;;;7.07;47.05;102030.39;1680433;83;21152;-38
2022/03/21 08:26:19;;;;;;;;;;;;;;;7.22;46.41;102009.33;1660905;84;21633;-46
2022/03/21 08:28:52;;;;;;;17.30;9.90;;;;;;;7.35;45.68;102011.59;1645759;85;20536;-38
2022/03/21 08:31:21;;;;;;;18.07;11.88;;;;;;;7.41;45.64;102011.41;1735697;78;21154;-44
2022/03/21 08:33:55;;;;;;;18.50;11.48;;;;;;;7.51;45.78;102005.28;1721557;82;21139;-44
2022/03/21 08:36:32;;;;;;;15.85;10.70;;;;;;;7.55;45.65;102005.89;1697858;82;21176;-38
2022/03/21 08:39:10;;;;;;;16.70;10.50;;;;;;;7.58;45.75;102005.99;1679832;81;21011;-46
2022/03/21 08:41:40;;;;;;;15.20;9.28;;;;;;;7.69;45.29;101998.19;1717527;80;21062;-38
2022/03/21 08:44:34;;;;;;;15.60;8.43;;;;;;;7.81;44.97;101996.46;1724374;78;20988;-46
2022/03/21 08:47:06;;;;;;;16.65;9.20;;;;;;;7.88;44.44;101999.34;1809508;77;21123;-44
2022/03/21 08:49:38;;;;;;;12.58;8.35;;;;;;;7.94;44.75;101994.40;1781671;77;21614;-45
2022/03/21 08:52:14;;;;;;;12.47;8.48;;;;;;;8.00;44.76;101990.72;1809347;76;21062;-45
2022/03/21 08:54:52;;;;;;;10.03;7.03;;;;;;;8.12;44.58;101979.85;1743911;77;21520;-39
2022/03/21 08:57:28;;;;;;;8.28;5.70;;;;;;;8.26;43.41;101991.66;1781561;78;21928;-38
2022/03/21 09:03:38;;;;;;;11.15;7.78;;;;;;;8.44;43.18;101982.33;1840516;76;21061;-46
2022/03/21 09:06:12;;;;;;;11.05;7.33;;;;;;;8.51;43.35;101991.25;1799659;77;21146;-44
2022/03/21 09:08:45;;;;;;;21.57;9.90;;;;;;;8.52;43.00;101985.20;1727533;77;21021;-38
2022/03/21 09:11:27;;;;;;;13.05;7.47;;;;;;;8.53;43.40;101985.27;1753731;77;21178;-37
2022/03/21 09:14:00;;;;;;;12.98;7.30;;;;;;;8.63;43.43;101982.97;1742247;79;21660;-38
2022/03/21 09:16:42;;;;;;;11.43;7.08;;;;;;;8.75;43.24;101984.27;1738615;81;21142;-46
2022/03/21 09:19:18;;;;;;;14.25;7.33;;;;;;;8.83;43.56;101987.16;1794151;78;21070;-37
2022/03/21 09:21:52;;;;;;;11.65;6.25;;;;;;;8.89;43.49;101979.53;1730175;81;21173;-38
2022/03/21 09:24:47;;;;;;;12.25;7.03;;;;;;;8.92;42.86;101977.01;1746959;80;21593;-46
2022/03/21 09:27:23;;;;;;;12.82;7.42;;;;;;;8.87;43.17;101972.08;1780913;78;21028;-38
2022/03/21 09:29:52;;;;;;;19.40;8.98;;;;;;;8.93;43.41;101966.14;1732715;79;21116;-45
2022/03/21 09:32:29;;;;;;;16.50;8.60;;;;;;;9.03;43.24;101970.42;1749098;80;21047;-47
2022/03/21 09:35:15;;;;;;;16.45;8.20;;;;;;;9.17;43.03;101957.83;1765593;80;22448;-39
2022/03/21 09:37:51;;;;;;;17.65;8.55;;;;;;;9.35;42.20;101962.75;1756077;80;21499;-45
2022/03/21 09:40:21;;;;;;;18.70;11.10;;;;;;;9.37;42.19;101964.98;1774971;79;21791;-38
2022/03/21 09:42:51;;;;;;;19.42;12.03;;;;;;;9.37;41.59;101947.11;1674663;81;21662;-45
2022/03/21 09:45:21;;;;;;;19.92;13.62;;;;;;;9.37;41.67;101958.87;1703665;79;21168;-38
2022/03/21 09:48:11;;;;;;;19.55;12.73;;;;;;;9.42;42.36;101958.59;1755648;80;21548;-38
2022/03/21 09:50:44;;;;;;;13.90;7.80;;;;;;;9.48;42.00;101950.95;1768022;80;21074;-46
2022/03/21 09:53:21;;;;;;;9.70;6.20;;;;;;;9.59;41.84;101957.39;1730793;81;21127;-39
2022/03/21 09:55:50;;;;;;;11.08;6.10;;;;;;;9.70;41.40;101953.80;1769487;80;21648;-38
2022/03/21 09:58:20;;;;;;;12.37;7.08;;;;;;;9.76;41.55;101952.24;1744627;80;21030;-46
2022/03/21 10:00:52;;;;;;;14.07;6.90;;;;;;;9.75;40.16;101954.39;1737685;80;21096;-46
2022/03/21 10:03:25;;;;;;;15.20;7.33;;;;;;;9.73;40.74;101935.14;1727007;81;21103;-38
2022/03/21 10:06:01;;;;;;;15.45;9.35;;;;;;;9.83;40.67;101938.92;1815227;77;21048;-45
2022/03/21 10:08:39;;;;;;;19.30;10.68;;;;;;;10.01;40.46;101934.64;1806604;78;21040;-37
2022/03/21 10:11:14;;;;;;;15.32;9.65;;;;;;;10.14;39.22;101928.47;1738941;80;21565;-44
2022/03/21 10:13:53;;;;;;;17.32;7.67;;;;;;;10.23;38.98;101924.36;1707642;82;21033;-38
2022/03/21 10:16:28;;;;;;;8.95;5.55;;;;;;;10.36;39.07;101922.14;1801158;78;21103;-39
2022/03/21 10:19:04;;;;;;;8.10;4.12;;;;;;;10.54;38.11;101916.50;1752167;80;21069;-40
2022/03/21 10:21:37;;;;;;;8.05;3.92;;;;;;;10.75;37.05;101919.21;1692432;80;21081;-38
2022/03/21 10:24:18;;;;;;;6.35;3.58;;;;;;;10.95;36.69;101910.52;1707154;80;21097;-46
2022/03/21 10:26:59;;;;;;;6.78;3.85;;;;;;;11.18;34.04;101908.02;1784524;78;21141;-37
2022/03/21 10:32:52;;;;;;;6.20;4.05;;;;;;;11.55;32.99;101903.19;1760068;80;21053;-45
2022/03/21 10:35:23;;;;;;;6.58;4.25;;;;;;;11.84;33.76;101905.14;1735498;80;21165;-38
2022/03/21 10:38:05;;;;;;;8.03;3.83;;;;;;;12.28;33.67;101909.45;1790430;80;22650;-38
2022/03/21 10:40:55;;;;;;;5.90;4.12;;;;;;;12.75;33.00;101898.03;1737878;80;21090;-38
2022/03/21 10:43:30;;;;;;;9.60;3.92;;;;;;;13.20;32.28;101894.80;1790857;77;21167;-46
2022/03/21 10:46:04;;;;;;;6.92;3.45;;;;;;;13.54;31.64;101888.30;1783633;77;21651;-38
2022/03/21 10:48:40;;;;;;;8.73;3.25;;;;;;;13.92;31.56;101886.14;1738872;77;21119;-38
2022/03/21 10:51:09;;;;;;;9.75;3.27;;;;;;;14.35;30.31;101876.92;1764617;78;21145;-38
2022/03/21 10:53:47;;;;;;;8.55;3.47;;;;;;;14.76;29.96;101870.29;1750432;78;20993;-40
2022/03/21 10:56:24;;;;;;;4.62;3.10;;;;;;;15.19;29.13;101872.80;1768928;78;21077;-39
2022/03/21 10:58:54;;;;;;;8.33;3.20;;;;;;;15.54;28.73;101867.70;1755859;79;21185;-47
2022/03/21 11:01:32;;;;;;;9.38;3.12;;;;;;;16.04;28.16;101870.09;1768995;78;21135;-48
2022/03/21 11:04:08;;;;;;;7.05;2.65;;;;;;;16.49;27.44;101856.94;1773855;77;21047;-47
2022/03/21 11:06:37;;;;;;;7.05;2.87;;;;;;;16.87;26.79;101855.19;1781822;78;21081;-40
2022/03/21 11:09:13;;;;;;;4.05;2.40;;;;;;;17.03;26.15;101848.99;1787173;78;21731;-48
2022/03/21 11:11:43;;;;;;;5.37;2.90;;;;;;;17.05;26.09;101845.92;1795091;78;21069;-40
2022/03/21 11:14:19;;;;;;;10.03;2.77;;;;;;;17.21;26.07;101844.09;1739550;78;21022;-46
2022/03/21 11:16:53;;;;;;;4.95;3.00;;;;;;;17.29;25.68;101847.62;1786164;78;21141;-40
2022/03/21 11:19:25;;;;;;;5.35;2.42;;;;;;;17.03;26.29;101840.62;1767854;78;21603;-41
2022/03/21 11:21:54;;;;;;;;;;;;;;;17.23;26.66;101841.03;1765431;78;21153;-40
2022/03/21 11:24:34;;;;;;;8.45;2.77;;;;;;;17.67;26.09;101833.34;1780418;77;20118;-40
2022/03/21 11:27:34;;;;;;;3.80;2.72;;;;;;;17.99;25.92;101828.78;1777291;78;21116;-46
2022/03/21 11:30:38;;;;;;;10.00;3.67;;;;;;;18.31;25.82;101818.39;1845933;77;21434;-47
2022/03/21 11:37:29;;;;;;;3.25;2.75;;;;;;;18.57;25.59;101808.91;1807010;75;21210;-40
2022/03/21 11:40:39;;;;;;;6.22;3.72;;;;;;;18.85;25.37;101817.06;1768058;78;21087;-46
2022/03/21 11:43:25;;;;;;;6.25;3.58;;;;;;;18.70;25.42;101811.03;1778003;79;21530;-40
2022/03/21 11:48:38;;;;;;;5.05;3.40;;;;;;;18.18;26.27;101803.49;1754396;80;20980;-40
2022/03/21 11:51:26;;;;;;;9.20;4.65;;;;;;;17.91;26.65;101797.94;1774070;79;21151;-48
2022/03/21 11:53:57;;;;;;;6.30;3.35;;;;;;;17.51;26.98;101798.12;1738950;80;21389;-40
2022/03/21 11:56:47;;;;;;;;;;;;;;;16.86;27.92;101805.41;1810531;79;21008;-39
2022/03/21 11:59:40;;;;;;;16.00;3.30;;;;;;;16.40;29.03;101797.94;1813306;77;20177;-46
2022/03/21 12:02:20;;;;;;;7.58;3.45;;;;;;;16.04;29.47;101797.49;1748085;79;21066;-46
2022/03/21 12:05:05;;;;;;;13.08;3.33;;;;;;;15.62;30.10;101787.27;1755603;80;21684;-40
2022/03/21 12:07:33;;;;;;;10.75;3.62;;;;;;;15.36;30.60;101785.84;1765607;80;22475;-39
2022/03/21 12:10:07;;;;;;;11.35;4.92;;;;;;;15.28;31.49;101784.94;1766260;79;21046;-46
2022/03/21 12:12:52;;;;;;;5.67;3.30;;;;;;;15.20;31.41;101777.45;1752276;80;21126;-38
2022/03/21 12:15:33;;;;;;;9.45;4.12;;;;;;;14.98;32.14;101780.41;1785895;79;21142;-39
2022/03/21 12:18:01;;;;;;;10.65;4.05;;;;;;;14.88;32.09;101782.10;1757873;79;21009;-47
2022/03/21 12:20:46;;;;;;;9.70;2.90;;;;;;;14.68;31.99;101779.36;1780534;78;21100;-46
2022/03/21 12:23:25;;;;;;;5.97;2.95;;;;;;;14.49;32.79;101780.95;1776044;80;21052;-39
2022/03/21 12:25:52;;;;;;;6.80;3.15;;;;;;;14.47;32.66;101775.25;1752289;79;21093;-40
2022/03/21 12:31:31;;;;;;;6.05;3.22;;;;;;;14.55;33.15;101774.86;1745474;80;21371;-46
2022/03/21 12:34:39;;;;;;;9.10;3.12;;;;;;;14.78;32.49;101771.94;1738308;79;21101;-46
2022/03/21 12:37:40;;;;;;;8.08;3.08;;;;;;;14.83;32.63;101786.02;1749670;79;21120;-42
2022/03/21 12:40:12;;;;;;;11.65;3.70;;;;;;;15.03;32.20;101770.78;1738176;79;21078;-39
2022/03/21 12:42:45;;;;;;;5.03;3.05;;;;;;;15.48;31.47;101771.81;1801091;78;21046;-42
2022/03/21 12:45:23;;;;;;;9.23;2.72;;;;;;;15.59;31.45;101767.45;1723722;79;21138;-39
2022/03/21 12:47:58;;;;;;;4.22;2.60;;;;;;;15.57;31.51;101762.63;1774226;79;21047;-48
2022/03/21 12:50:29;;;;;;;7.45;2.70;;;;;;;15.40;31.90;101771.36;1779990;79;21917;-48
2022/03/21 12:53:05;;;;;;;6.87;3.33;;;;;;;15.25;32.11;101755.91;1747904;79;21083;-48
2022/03/21 12:55:45;;;;;;;7.95;3.05;;;;;;;15.16;32.07;101765.56;1752134;78;21052;-47
2022/03/21 12:58:20;;;;;;;4.78;2.37;;;;;;;15.09;32.31;101764.22;1755635;79;21556;-38
